Time;durP1;ratioP1;P1;durP2;ratioP2;P2;SDS_P1;SDS_P2;PMS_P1;PMS_P2;Temp;Humidity;BMP_temperature;BMP_pressure;BME280_temperature;BME280_humidity;BME280_pressure;Samples;Min_cycle;Max_cycle;Signal;HPM_P1;HPM_P2
2023/09/27 00:01:34;;;;;;;1.90;1.80;;;;;;;;;;5031591;28;20033;-71
2023/09/27 00:04:00;;;;;;;3.65;2.83;;;;;;;;;;5036677;28;20041;-72
2023/09/27 00:06:25;;;;;;;3.53;2.92;;;;;;;;;;5030338;28;20765;-71
2023/09/27 00:08:50;;;;;;;4.88;3.10;;;;;;;;;;5031553;28;20041;-71
2023/09/27 00:11:16;;;;;;;2.47;2.28;;;;;;;;;;5037498;28;20049;-71
2023/09/27 00:13:42;;;;;;;2.80;2.60;;;;;;;;;;5029871;28;20033;-71
2023/09/27 00:16:07;;;;;;;2.28;2.08;;;;;;;;;;5025869;28;20049;-71
2023/09/27 00:18:33;;;;;;;2.40;2.20;;;;;;;;;;5034865;28;20476;-71
2023/09/27 00:20:58;;;;;;;3.58;2.60;;;;;;;;;;5026505;28;20041;-71
2023/09/27 00:23:24;;;;;;;2.70;2.50;;;;;;;;;;5034799;28;20040;-71
2023/09/27 00:25:49;;;;;;;2.47;2.28;;;;;;;;;;5033967;28;20534;-71
2023/09/27 00:28:15;;;;;;;2.05;1.92;;;;;;;;;;5036312;28;20037;-71
2023/09/27 00:30:40;;;;;;;3.55;2.50;;;;;;;;;;5027341;28;20060;-71
2023/09/27 00:33:06;;;;;;;2.97;2.67;;;;;;;;;;5041685;28;20033;-71
2023/09/27 00:35:31;;;;;;;3.40;2.83;;;;;;;;;;5034149;28;20040;-71
2023/09/27 00:37:58;;;;;;;3.83;2.38;;;;;;;;;;5037033;28;20041;-71
2023/09/27 00:40:25;;;;;;;2.20;2.00;;;;;;;;;;5029926;28;20335;-71
2023/09/27 00:42:50;;;;;;;3.22;2.60;;;;;;;;;;5023261;28;20060;-71
2023/09/27 00:45:17;;;;;;;2.40;2.20;;;;;;;;;;5036031;28;20061;-71
2023/09/27 00:47:42;;;;;;;3.08;2.78;;;;;;;;;;5023722;28;20029;-71
2023/09/27 00:50:09;;;;;;;3.78;2.90;;;;;;;;;;5030606;28;20160;-71
2023/09/27 00:52:36;;;;;;;2.35;2.15;;;;;;;;;;5032676;28;20538;-71
2023/09/27 00:55:02;;;;;;;3.47;3.03;;;;;;;;;;5027476;28;20037;-71
2023/09/27 00:57:28;;;;;;;2.63;2.42;;;;;;;;;;5023854;28;20402;-71
2023/09/27 00:59:54;;;;;;;1.83;1.73;;;;;;;;;;5034744;28;20033;-71
2023/09/27 01:02:19;;;;;;;2.13;2.03;;;;;;;;;;5029859;28;20036;-71
2023/09/27 01:04:45;;;;;;;2.08;1.98;;;;;;;;;;5031832;28;20555;-71
2023/09/27 01:07:10;;;;;;;2.22;1.92;;;;;;;;;;5035729;28;20064;-71
2023/09/27 01:09:37;;;;;;;3.08;2.42;;;;;;;;;;5022987;28;20079;-71
2023/09/27 01:12:03;;;;;;;2.92;2.70;;;;;;;;;;5030754;28;20036;-71
2023/09/27 01:14:30;;;;;;;4.03;3.05;;;;;;;;;;5040068;28;20086;-71
2023/09/27 01:16:55;;;;;;;2.47;1.83;;;;;;;;;;5034139;28;20769;-71
2023/09/27 01:19:21;;;;;;;2.63;2.40;;;;;;;;;;5032619;28;20047;-71
2023/09/27 01:21:46;;;;;;;2.50;2.30;;;;;;;;;;5032279;28;20040;-71
2023/09/27 01:24:12;;;;;;;2.00;1.90;;;;;;;;;;5032160;28;20687;-72
2023/09/27 01:26:39;;;;;;;2.70;2.22;;;;;;;;;;5027151;28;20045;-72
2023/09/27 01:29:04;;;;;;;2.38;2.10;;;;;;;;;;5036463;28;20045;-72
2023/09/27 01:31:31;;;;;;;2.42;2.22;;;;;;;;;;5037718;28;20111;-72
2023/09/27 01:33:57;;;;;;;2.58;2.38;;;;;;;;;;5032839;28;20029;-72
2023/09/27 01:36:22;;;;;;;2.38;2.08;;;;;;;;;;5035955;28;20033;-71
2023/09/27 01:38:48;;;;;;;2.10;1.90;;;;;;;;;;5029013;28;20609;-71
2023/09/27 01:41:13;;;;;;;4.97;3.88;;;;;;;;;;4980431;28;20096;-71
2023/09/27 01:43:39;;;;;;;6.28;4.03;;;;;;;;;;5033759;28;20059;-71
2023/09/27 01:46:04;;;;;;;4.72;3.70;;;;;;;;;;5044697;28;20124;-71
2023/09/27 01:48:30;;;;;;;2.35;1.98;;;;;;;;;;5048087;28;20037;-72
2023/09/27 01:50:55;;;;;;;4.07;2.50;;;;;;;;;;5022758;28;20140;-71
2023/09/27 01:53:21;;;;;;;2.55;2.35;;;;;;;;;;5013145;28;20095;-71
2023/09/27 01:55:47;;;;;;;4.32;3.08;;;;;;;;;;5021840;28;20107;-71
2023/09/27 01:58:13;;;;;;;9.57;4.65;;;;;;;;;;5027502;28;20135;-71
2023/09/27 02:00:38;;;;;;;5.72;4.45;;;;;;;;;;5044269;28;20111;-71
2023/09/27 02:03:04;;;;;;;3.47;2.80;;;;;;;;;;5037384;28;20049;-71
2023/09/27 02:05:30;;;;;;;2.60;2.38;;;;;;;;;;5040495;28;20044;-71
2023/09/27 02:07:56;;;;;;;2.35;2.15;;;;;;;;;;5023739;28;20041;-72
2023/09/27 02:10:22;;;;;;;2.38;2.17;;;;;;;;;;5030255;28;20580;-71
2023/09/27 02:12:48;;;;;;;2.50;2.30;;;;;;;;;;5026359;28;20065;-72
2023/09/27 02:15:14;;;;;;;2.35;2.15;;;;;;;;;;5025268;28;20087;-72
2023/09/27 02:17:41;;;;;;;2.90;2.60;;;;;;;;;;5021371;28;20037;-72
2023/09/27 02:20:13;;;;;;;2.60;2.40;;;;;;;;;;5037772;28;20044;-72
2023/09/27 02:22:40;;;;;;;2.42;2.22;;;;;;;;;;5018292;28;20037;-72
2023/09/27 02:25:11;;;;;;;2.38;2.05;;;;;;;;;;5032098;28;20112;-71
2023/09/27 02:27:40;;;;;;;2.45;2.25;;;;;;;;;;5026206;28;20026;-72
2023/09/27 02:30:07;;;;;;;2.00;1.90;;;;;;;;;;5040670;28;20037;-71
2023/09/27 02:32:33;;;;;;;2.45;2.13;;;;;;;;;;5010288;28;20040;-72
2023/09/27 02:34:59;;;;;;;2.47;2.28;;;;;;;;;;5028992;28;20033;-72
2023/09/27 02:37:24;;;;;;;4.03;3.60;;;;;;;;;;5038223;28;20045;-72
2023/09/27 02:39:49;;;;;;;3.85;3.03;;;;;;;;;;5035309;28;20553;-72
2023/09/27 02:42:15;;;;;;;2.70;2.50;;;;;;;;;;5034181;28;20124;-72
2023/09/27 02:44:40;;;;;;;2.33;2.13;;;;;;;;;;5034851;28;20032;-72
2023/09/27 02:47:08;;;;;;;2.75;2.20;;;;;;;;;;5034412;28;20072;-71
2023/09/27 02:49:37;;;;;;;2.95;2.60;;;;;;;;;;5024204;28;20072;-72
2023/09/27 02:52:03;;;;;;;3.78;3.20;;;;;;;;;;5034689;28;20495;-72
2023/09/27 02:54:28;;;;;;;4.97;3.13;;;;;;;;;;5037914;28;20029;-72
2023/09/27 02:56:54;;;;;;;2.42;2.30;;;;;;;;;;5030366;28;20042;-72
2023/09/27 02:59:19;;;;;;;2.58;2.38;;;;;;;;;;5028209;28;20041;-72
2023/09/27 03:01:45;;;;;;;5.45;3.20;;;;;;;;;;5015972;28;20537;-72
2023/09/27 03:04:11;;;;;;;2.78;2.58;;;;;;;;;;5028192;28;20049;-72
2023/09/27 03:06:41;;;;;;;2.03;1.92;;;;;;;;;;5043929;28;20114;-72
2023/09/27 03:09:08;;;;;;;2.35;2.15;;;;;;;;;;5021838;28;20505;-72
2023/09/27 03:11:34;;;;;;;2.03;1.88;;;;;;;;;;5040008;28;20032;-72
2023/09/27 03:14:00;;;;;;;2.03;1.92;;;;;;;;;;5039885;28;20146;-72
2023/09/27 03:16:26;;;;;;;2.60;2.40;;;;;;;;;;5019186;28;20087;-72
2023/09/27 03:18:51;;;;;;;2.28;2.08;;;;;;;;;;5034381;28;20040;-72
2023/09/27 03:21:17;;;;;;;2.40;2.20;;;;;;;;;;5037067;28;20025;-72
2023/09/27 03:23:43;;;;;;;2.50;2.10;;;;;;;;;;5038526;28;20071;-72
2023/09/27 03:26:09;;;;;;;1.80;1.70;;;;;;;;;;5035206;28;20037;-72
2023/09/27 03:28:35;;;;;;;2.60;2.13;;;;;;;;;;5027462;28;20501;-72
2023/09/27 03:31:02;;;;;;;2.17;1.98;;;;;;;;;;5021479;28;20099;-72
2023/09/27 03:33:27;;;;;;;2.50;2.30;;;;;;;;;;5036567;28;20135;-72
2023/09/27 03:35:53;;;;;;;2.50;2.30;;;;;;;;;;5030683;28;20119;-72
2023/09/27 03:38:18;;;;;;;2.17;1.98;;;;;;;;;;5034596;28;20040;-72
2023/09/27 03:40:44;;;;;;;2.40;2.20;;;;;;;;;;5026335;28;20029;-72
2023/09/27 03:43:09;;;;;;;2.58;2.38;;;;;;;;;;5015550;28;20042;-72
2023/09/27 03:45:38;;;;;;;2.92;2.38;;;;;;;;;;5005064;28;20705;-73
2023/09/27 03:48:03;;;;;;;2.42;2.20;;;;;;;;;;5013085;28;20029;-72
2023/09/27 03:50:29;;;;;;;3.70;3.22;;;;;;;;;;5010400;28;20041;-72
2023/09/27 03:52:59;;;;;;;3.20;2.85;;;;;;;;;;5013462;28;20497;-72
2023/09/27 03:55:25;;;;;;;2.75;2.55;;;;;;;;;;5021506;28;20190;-72
2023/09/27 03:57:51;;;;;;;2.70;2.50;;;;;;;;;;5010511;28;20685;-72
2023/09/27 04:00:17;;;;;;;2.30;2.10;;;;;;;;;;5009588;28;20041;-72
2023/09/27 04:02:44;;;;;;;2.88;2.20;;;;;;;;;;5015407;28;20125;-72
2023/09/27 04:05:10;;;;;;;2.80;2.60;;;;;;;;;;5015897;28;20037;-73
2023/09/27 04:07:39;;;;;;;3.30;3.00;;;;;;;;;;5017388;28;20026;-72
2023/09/27 04:10:06;;;;;;;5.15;4.50;;;;;;;;;;5014328;28;20557;-71
2023/09/27 04:12:31;;;;;;;2.17;2.00;;;;;;;;;;5004942;28;20069;-71
2023/09/27 04:14:57;;;;;;;2.72;2.53;;;;;;;;;;5010699;28;20068;-71
2023/09/27 04:17:22;;;;;;;2.67;2.47;;;;;;;;;;5012977;28;20030;-71
2023/09/27 04:19:51;;;;;;;2.88;2.67;;;;;;;;;;5007956;28;20128;-71
2023/09/27 04:22:17;;;;;;;2.58;2.28;;;;;;;;;;5025640;28;20047;-71
2023/09/27 04:24:42;;;;;;;2.05;1.90;;;;;;;;;;5013068;28;20034;-71
2023/09/27 04:27:08;;;;;;;2.60;2.40;;;;;;;;;;4994328;28;20037;-71
2023/09/27 04:29:33;;;;;;;2.17;2.08;;;;;;;;;;5007587;28;20591;-71
2023/09/27 04:31:59;;;;;;;2.40;2.20;;;;;;;;;;5009372;28;20049;-70
2023/09/27 04:34:24;;;;;;;1.90;1.80;;;;;;;;;;5018978;28;20044;-71
2023/09/27 04:36:53;;;;;;;3.15;1.90;;;;;;;;;;5011554;28;20033;-73
2023/09/27 04:39:19;;;;;;;3.20;2.42;;;;;;;;;;5011145;28;20080;-72
2023/09/27 04:41:46;;;;;;;2.90;2.55;;;;;;;;;;4993924;28;20471;-72
2023/09/27 04:44:12;;;;;;;2.72;2.50;;;;;;;;;;5004273;28;20968;-72
2023/09/27 04:46:38;;;;;;;2.20;2.03;;;;;;;;;;5012365;28;20557;-72
2023/09/27 04:49:03;;;;;;;3.35;3.05;;;;;;;;;;5017192;28;20045;-71
2023/09/27 04:51:29;;;;;;;2.25;2.05;;;;;;;;;;5001581;28;20084;-72
2023/09/27 04:54:00;;;;;;;2.05;1.85;;;;;;;;;;5004769;28;20037;-72
2023/09/27 04:56:26;;;;;;;2.90;2.67;;;;;;;;;;5003946;28;20045;-72
2023/09/27 04:58:51;;;;;;;2.20;2.00;;;;;;;;;;5008590;28;20108;-71
2023/09/27 05:01:17;;;;;;;2.80;2.35;;;;;;;;;;5010891;28;20045;-70
2023/09/27 05:03:43;;;;;;;2.03;1.92;;;;;;;;;;5009318;28;20038;-72
2023/09/27 05:06:08;;;;;;;2.30;2.10;;;;;;;;;;5011217;28;20034;-71
2023/09/27 05:08:34;;;;;;;2.55;1.98;;;;;;;;;;5005407;28;20040;-72
2023/09/27 05:10:59;;;;;;;2.03;1.90;;;;;;;;;;5012892;28;20033;-71
2023/09/27 05:13:25;;;;;;;2.63;1.95;;;;;;;;;;5015914;28;20038;-71
2023/09/27 05:15:53;;;;;;;3.42;2.80;;;;;;;;;;5010914;28;20506;-71
2023/09/27 05:18:19;;;;;;;2.65;2.45;;;;;;;;;;4992665;28;20134;-72
2023/09/27 05:20:45;;;;;;;2.67;2.47;;;;;;;;;;5014215;28;20040;-71
2023/09/27 05:23:11;;;;;;;3.67;2.95;;;;;;;;;;5005512;28;20064;-70
2023/09/27 05:25:36;;;;;;;2.47;2.25;;;;;;;;;;5017658;28;20115;-72
2023/09/27 05:28:02;;;;;;;1.98;1.70;;;;;;;;;;5014021;28;20076;-72
2023/09/27 05:30:27;;;;;;;2.80;2.55;;;;;;;;;;5013270;28;20048;-72
2023/09/27 05:32:53;;;;;;;2.83;2.55;;;;;;;;;;5013370;28;20037;-72
2023/09/27 05:35:19;;;;;;;2.17;2.00;;;;;;;;;;5014775;28;20041;-71
2023/09/27 05:37:44;;;;;;;2.00;1.80;;;;;;;;;;4998742;28;20112;-71
2023/09/27 05:40:10;;;;;;;2.10;1.90;;;;;;;;;;5012204;28;20588;-71
2023/09/27 05:42:39;;;;;;;2.17;1.95;;;;;;;;;;5013474;28;20037;-71
2023/09/27 05:45:05;;;;;;;2.55;2.35;;;;;;;;;;5017823;28;20045;-71
2023/09/27 05:47:32;;;;;;;4.20;3.55;;;;;;;;;;5017097;28;20036;-71
2023/09/27 05:49:57;;;;;;;3.20;2.90;;;;;;;;;;5008584;28;20033;-71
2023/09/27 05:52:22;;;;;;;3.15;2.60;;;;;;;;;;5013367;28;20529;-71
2023/09/27 05:54:48;;;;;;;2.30;2.10;;;;;;;;;;5012409;28;20044;-70
2023/09/27 05:57:14;;;;;;;2.25;2.08;;;;;;;;;;5008627;28;20041;-71
2023/09/27 05:59:44;;;;;;;3.08;2.80;;;;;;;;;;5014897;28;20642;-71
2023/09/27 06:02:16;;;;;;;3.63;3.13;;;;;;;;;;5009002;28;20048;-71
2023/09/27 06:04:42;;;;;;;4.68;4.07;;;;;;;;;;5004359;28;20045;-71
2023/09/27 06:07:07;;;;;;;8.07;5.95;;;;;;;;;;5009310;28;20072;-71
2023/09/27 06:09:33;;;;;;;7.18;4.65;;;;;;;;;;5014368;28;20552;-71
2023/09/27 06:11:58;;;;;;;9.75;5.25;;;;;;;;;;5016036;28;20047;-71
2023/09/27 06:14:23;;;;;;;5.85;5.25;;;;;;;;;;5011381;28;20603;-71
2023/09/27 06:16:49;;;;;;;8.10;5.32;;;;;;;;;;5016489;28;20042;-71
2023/09/27 06:19:14;;;;;;;6.45;5.60;;;;;;;;;;5002391;28;20391;-71
2023/09/27 06:21:40;;;;;;;8.20;6.13;;;;;;;;;;5019847;28;20075;-71
2023/09/27 06:24:05;;;;;;;8.50;6.10;;;;;;;;;;5015344;28;20034;-71
2023/09/27 06:26:31;;;;;;;7.57;5.75;;;;;;;;;;5012159;28;20065;-71
2023/09/27 06:28:57;;;;;;;8.57;6.07;;;;;;;;;;5015571;28;20466;-71
2023/09/27 06:31:24;;;;;;;8.25;6.10;;;;;;;;;;5006158;28;20045;-71
2023/09/27 06:33:49;;;;;;;8.23;5.47;;;;;;;;;;4995255;28;20033;-71
2023/09/27 06:36:16;;;;;;;6.97;6.28;;;;;;;;;;5017551;28;20399;-71
2023/09/27 06:38:41;;;;;;;9.00;6.50;;;;;;;;;;5013219;28;20134;-71
2023/09/27 06:41:08;;;;;;;7.00;6.30;;;;;;;;;;5019223;28;20675;-71
2023/09/27 06:43:34;;;;;;;9.32;6.88;;;;;;;;;;5008340;28;20180;-71
2023/09/27 06:46:07;;;;;;;8.00;6.55;;;;;;;;;;5013662;28;20123;-71
2023/09/27 06:48:32;;;;;;;3.85;3.50;;;;;;;;;;5003427;28;20038;-71
2023/09/27 06:50:58;;;;;;;7.95;6.25;;;;;;;;;;5028859;28;20529;-71
2023/09/27 06:53:24;;;;;;;8.40;7.53;;;;;;;;;;5021375;28;20115;-71
2023/09/27 06:55:52;;;;;;;9.18;6.22;;;;;;;;;;5011888;28;20091;-72
2023/09/27 06:58:23;;;;;;;9.57;6.15;;;;;;;;;;5021431;28;20076;-71
2023/09/27 07:00:49;;;;;;;9.05;7.03;;;;;;;;;;5009396;28;20564;-71
2023/09/27 07:03:15;;;;;;;7.43;5.60;;;;;;;;;;5020274;28;20040;-71
2023/09/27 07:05:41;;;;;;;8.52;5.93;;;;;;;;;;5014729;28;20041;-71
2023/09/27 07:08:06;;;;;;;7.88;5.85;;;;;;;;;;5016466;28;20553;-71
2023/09/27 07:10:32;;;;;;;7.40;5.88;;;;;;;;;;5021807;28;20040;-72
2023/09/27 07:12:57;;;;;;;7.30;6.00;;;;;;;;;;5009338;28;20049;-71
2023/09/27 07:15:23;;;;;;;8.15;5.82;;;;;;;;;;5001772;28;20037;-71
2023/09/27 07:17:48;;;;;;;7.35;5.53;;;;;;;;;;5020379;28;20041;-72
2023/09/27 07:20:27;;;;;;;8.70;6.25;;;;;;;;;;5018212;28;20037;-72
2023/09/27 07:22:53;;;;;;;8.07;6.18;;;;;;;;;;5015671;28;20525;-72
2023/09/27 07:25:20;;;;;;;7.93;5.78;;;;;;;;;;5019291;28;20030;-72
2023/09/27 07:27:48;;;;;;;15.20;6.43;;;;;;;;;;5001285;28;20406;-72
2023/09/27 07:30:18;;;;;;;8.70;5.90;;;;;;;;;;5013241;28;20042;-71
2023/09/27 07:32:44;;;;;;;6.80;6.10;;;;;;;;;;5016123;28;20044;-71
2023/09/27 07:35:10;;;;;;;7.03;5.55;;;;;;;;;;5020220;28;20072;-72
2023/09/27 07:37:37;;;;;;;8.45;5.72;;;;;;;;;;5018454;28;20065;-72
2023/09/27 07:40:08;;;;;;;7.95;6.00;;;;;;;;;;5011933;28;20433;-72
2023/09/27 07:42:34;;;;;;;9.02;5.85;;;;;;;;;;5001655;28;20053;-72
2023/09/27 07:44:59;;;;;;;6.15;5.47;;;;;;;;;;5030592;28;20060;-72
2023/09/27 07:47:25;;;;;;;10.52;6.38;;;;;;;;;;5026992;28;20067;-72
2023/09/27 07:49:50;;;;;;;7.60;5.63;;;;;;;;;;5016571;28;20068;-72
2023/09/27 07:52:15;;;;;;;7.32;6.07;;;;;;;;;;5023621;28;20045;-72
2023/09/27 07:54:41;;;;;;;9.93;6.70;;;;;;;;;;5014474;28;20049;-72
2023/09/27 07:57:06;;;;;;;6.35;5.75;;;;;;;;;;5009293;28;20068;-72
2023/09/27 07:59:31;;;;;;;11.10;6.55;;;;;;;;;;5016871;28;20041;-71
2023/09/27 08:01:57;;;;;;;9.32;6.90;;;;;;;;;;5016051;28;20399;-71
2023/09/27 08:04:23;;;;;;;9.02;7.00;;;;;;;;;;5017317;28;20034;-71
2023/09/27 08:06:49;;;;;;;8.57;7.10;;;;;;;;;;5011770;28;20041;-71
2023/09/27 08:09:15;;;;;;;10.57;6.78;;;;;;;;;;5003285;28;20136;-72
2023/09/27 08:11:40;;;;;;;12.18;7.00;;;;;;;;;;5020575;28;20491;-72
2023/09/27 08:14:08;;;;;;;8.25;6.38;;;;;;;;;;5018300;28;20159;-71
2023/09/27 08:16:35;;;;;;;9.68;6.10;;;;;;;;;;5012765;28;20037;-72
2023/09/27 08:19:00;;;;;;;10.25;6.72;;;;;;;;;;5014607;28;20373;-72
2023/09/27 08:21:26;;;;;;;6.10;5.20;;;;;;;;;;5012907;28;20033;-72
2023/09/27 08:23:52;;;;;;;9.93;5.88;;;;;;;;;;4996311;28;20849;-72
2023/09/27 08:26:18;;;;;;;12.10;6.75;;;;;;;;;;5013733;28;20105;-72
2023/09/27 08:28:43;;;;;;;6.97;5.32;;;;;;;;;;5016858;28;20074;-72
2023/09/27 08:31:09;;;;;;;6.43;4.30;;;;;;;;;;5010113;28;20068;-72
2023/09/27 08:33:35;;;;;;;13.02;6.13;;;;;;;;;;5014254;28;20490;-72
2023/09/27 08:36:00;;;;;;;8.10;5.88;;;;;;;;;;5017756;28;20622;-71
2023/09/27 08:38:26;;;;;;;8.25;5.63;;;;;;;;;;5008582;28;20033;-72
2023/09/27 08:40:52;;;;;;;6.10;5.50;;;;;;;;;;5014116;28;20045;-72
2023/09/27 08:43:20;;;;;;;8.95;5.88;;;;;;;;;;5020438;28;20029;-72
2023/09/27 08:45:47;;;;;;;8.13;5.30;;;;;;;;;;5014359;28;20033;-72
2023/09/27 08:48:20;;;;;;;6.68;5.03;;;;;;;;;;5018395;28;20047;-72
2023/09/27 08:50:46;;;;;;;6.47;5.60;;;;;;;;;;5002761;28;20125;-72
2023/09/27 08:53:11;;;;;;;8.02;5.60;;;;;;;;;;5014203;28;20104;-72
2023/09/27 08:55:37;;;;;;;8.43;5.40;;;;;;;;;;5029540;28;20036;-71
2023/09/27 08:58:03;;;;;;;5.38;4.50;;;;;;;;;;5037420;28;20033;-72
2023/09/27 09:00:32;;;;;;;8.40;5.05;;;;;;;;;;5022034;28;20049;-72
2023/09/27 09:02:59;;;;;;;5.05;4.55;;;;;;;;;;5023795;28;20116;-72
2023/09/27 09:05:28;;;;;;;6.32;4.60;;;;;;;;;;5020207;28;20078;-72
2023/09/27 09:08:01;;;;;;;5.53;3.63;;;;;;;;;;5040993;28;20124;-72
2023/09/27 09:10:28;;;;;;;4.15;3.17;;;;;;;;;;5035711;28;20800;-72
2023/09/27 09:12:54;;;;;;;7.05;4.60;;;;;;;;;;5033368;28;20049;-72
2023/09/27 09:15:41;;;;;;;4.10;3.55;;;;;;;;;;5032093;28;20063;-71
2023/09/27 09:18:11;;;;;;;4.78;4.25;;;;;;;;;;5024468;28;20080;-72
2023/09/27 09:20:54;;;;;;;5.68;4.63;;;;;;;;;;5033061;28;20029;-72
2023/09/27 09:23:33;;;;;;;3.38;3.08;;;;;;;;;;5036080;28;20035;-72
2023/09/27 09:26:06;;;;;;;4.50;3.65;;;;;;;;;;5033866;28;20051;-72
2023/09/27 09:28:32;;;;;;;6.57;3.75;;;;;;;;;;5008917;28;20046;-72
2023/09/27 09:30:57;;;;;;;3.33;3.03;;;;;;;;;;5024394;28;20386;-72
2023/09/27 09:33:24;;;;;;;5.47;4.13;;;;;;;;;;5031771;28;20548;-72
2023/09/27 09:35:51;;;;;;;6.18;4.00;;;;;;;;;;5036480;28;20129;-72
2023/09/27 09:38:29;;;;;;;4.38;3.97;;;;;;;;;;5032135;28;20445;-72
2023/09/27 09:40:59;;;;;;;6.25;3.80;;;;;;;;;;5023607;28;20470;-72
2023/09/27 09:43:42;;;;;;;5.95;4.30;;;;;;;;;;5029113;28;20449;-72
2023/09/27 09:46:10;;;;;;;3.97;3.63;;;;;;;;;;5034538;28;20041;-72
2023/09/27 09:48:38;;;;;;;4.32;3.92;;;;;;;;;;5040575;28;20171;-72
2023/09/27 09:51:07;;;;;;;6.55;4.25;;;;;;;;;;5022133;28;20145;-72
2023/09/27 09:53:40;;;;;;;4.18;3.70;;;;;;;;;;5032239;28;20036;-71
2023/09/27 09:56:07;;;;;;;5.57;3.70;;;;;;;;;;5037484;28;20714;-72
2023/09/27 09:58:38;;;;;;;4.75;3.80;;;;;;;;;;5026070;28;20042;-72
2023/09/27 10:01:04;;;;;;;6.05;3.85;;;;;;;;;;5020554;28;20068;-71
2023/09/27 10:03:35;;;;;;;4.85;3.60;;;;;;;;;;5005580;28;20041;-72
2023/09/27 10:06:05;;;;;;;3.85;3.00;;;;;;;;;;5018850;28;20041;-72
2023/09/27 10:08:34;;;;;;;3.60;2.80;;;;;;;;;;5022379;28;20108;-71
2023/09/27 10:11:04;;;;;;;5.20;3.92;;;;;;;;;;5015549;28;20510;-72
2023/09/27 10:13:33;;;;;;;4.03;3.60;;;;;;;;;;5007974;28;20029;-72
2023/09/27 10:15:59;;;;;;;4.85;3.58;;;;;;;;;;5006547;28;20037;-72
2023/09/27 10:18:28;;;;;;;3.08;2.72;;;;;;;;;;5015804;28;20038;-72
2023/09/27 10:21:03;;;;;;;4.13;3.22;;;;;;;;;;5018933;28;20629;-72
2023/09/27 10:23:46;;;;;;;5.72;3.60;;;;;;;;;;5016149;28;20041;-72
2023/09/27 10:26:27;;;;;;;3.20;2.90;;;;;;;;;;5018373;28;20052;-72
2023/09/27 10:29:03;;;;;;;42.65;6.10;;;;;;;;;;5011828;28;20083;-72
2023/09/27 10:31:32;;;;;;;3.80;3.45;;;;;;;;;;5043509;28;20056;-72
2023/09/27 10:33:58;;;;;;;5.97;3.10;;;;;;;;;;5042103;28;20102;-72
2023/09/27 10:36:23;;;;;;;5.20;4.20;;;;;;;;;;5040542;28;20491;-72
2023/09/27 10:38:49;;;;;;;6.35;4.47;;;;;;;;;;5037619;28;20055;-72
2023/09/27 10:41:40;;;;;;;6.63;4.38;;;;;;;;;;5027454;28;20045;-72
2023/09/27 10:44:06;;;;;;;7.75;4.38;;;;;;;;;;5037113;28;20044;-72
2023/09/27 10:46:42;;;;;;;5.53;3.97;;;;;;;;;;5041277;28;20044;-72
2023/09/27 10:49:08;;;;;;;3.83;3.28;;;;;;;;;;5038554;28;20086;-72
2023/09/27 10:51:33;;;;;;;4.07;3.15;;;;;;;;;;5021564;28;20056;-72
2023/09/27 10:53:59;;;;;;;6.00;3.97;;;;;;;;;;5041907;28;20040;-72
2023/09/27 10:56:25;;;;;;;4.10;3.70;;;;;;;;;;5017802;28;20044;-72
2023/09/27 10:58:50;;;;;;;2.83;2.53;;;;;;;;;;5005113;28;20815;-72
2023/09/27 11:01:20;;;;;;;5.55;4.43;;;;;;;;;;5026706;28;20803;-72
2023/09/27 11:03:45;;;;;;;4.30;3.78;;;;;;;;;;5041076;28;20576;-72
2023/09/27 11:06:12;;;;;;;3.90;3.47;;;;;;;;;;5021096;28;20056;-72
2023/09/27 11:08:38;;;;;;;4.60;3.50;;;;;;;;;;5022686;28;20120;-72
2023/09/27 11:11:07;;;;;;;4.47;3.90;;;;;;;;;;5032391;28;20145;-72
2023/09/27 11:13:33;;;;;;;5.50;4.22;;;;;;;;;;5034920;28;20080;-72
2023/09/27 11:16:14;;;;;;;5.55;4.22;;;;;;;;;;5034362;28;20094;-72
2023/09/27 11:18:44;;;;;;;4.13;3.72;;;;;;;;;;5018236;28;20651;-72
2023/09/27 11:21:11;;;;;;;4.15;3.30;;;;;;;;;;5019701;28;20098;-72
2023/09/27 11:23:54;;;;;;;3.15;2.83;;;;;;;;;;5030087;28;20038;-72
2023/09/27 11:26:20;;;;;;;6.75;4.03;;;;;;;;;;5029974;28;20041;-72
2023/09/27 11:29:04;;;;;;;4.55;4.03;;;;;;;;;;5018396;28;20045;-72
2023/09/27 11:31:31;;;;;;;3.35;3.00;;;;;;;;;;5007376;28;20042;-72
2023/09/27 11:34:14;;;;;;;3.47;2.95;;;;;;;;;;5032580;28;20056;-72
2023/09/27 11:36:48;;;;;;;2.63;2.42;;;;;;;;;;5029858;28;20032;-72
2023/09/27 11:39:15;;;;;;;4.38;3.63;;;;;;;;;;5033196;28;20056;-72
2023/09/27 11:41:41;;;;;;;3.50;3.20;;;;;;;;;;5021996;28;20044;-72
2023/09/27 11:44:26;;;;;;;4.13;3.50;;;;;;;;;;4996614;28;20041;-72
2023/09/27 11:47:03;;;;;;;3.97;2.88;;;;;;;;;;5029960;28;20032;-72
2023/09/27 11:49:28;;;;;;;2.88;2.65;;;;;;;;;;5033704;28;20111;-72
2023/09/27 11:51:54;;;;;;;3.63;2.90;;;;;;;;;;5026631;28;20647;-72
2023/09/27 11:54:19;;;;;;;3.90;2.72;;;;;;;;;;4975396;28;20046;-72
2023/09/27 11:56:45;;;;;;;3.22;2.40;;;;;;;;;;5020440;28;20375;-72
2023/09/27 11:59:10;;;;;;;3.13;2.42;;;;;;;;;;5020364;28;20060;-72
2023/09/27 12:01:36;;;;;;;3.95;2.55;;;;;;;;;;5021248;28;20091;-72
2023/09/27 12:04:02;;;;;;;4.28;3.13;;;;;;;;;;5021133;28;20034;-72
2023/09/27 12:06:29;;;;;;;2.72;2.50;;;;;;;;;;4985334;28;20120;-72
2023/09/27 12:08:55;;;;;;;5.00;2.90;;;;;;;;;;4995918;28;20041;-72
2023/09/27 12:11:21;;;;;;;3.20;2.85;;;;;;;;;;5018239;28;20483;-72
2023/09/27 12:13:47;;;;;;;3.30;3.00;;;;;;;;;;5008544;28;20088;-72
2023/09/27 12:16:12;;;;;;;6.47;3.03;;;;;;;;;;4993149;28;20045;-72
2023/09/27 12:18:37;;;;;;;4.43;3.10;;;;;;;;;;5033054;28;20209;-72
2023/09/27 12:21:03;;;;;;;4.63;2.67;;;;;;;;;;5019481;28;20076;-72
2023/09/27 12:23:29;;;;;;;4.25;3.42;;;;;;;;;;5032544;28;20059;-72
2023/09/27 12:25:54;;;;;;;3.13;2.83;;;;;;;;;;5037394;28;20036;-72
2023/09/27 12:28:20;;;;;;;5.50;3.28;;;;;;;;;;5027572;28;20036;-72
2023/09/27 12:30:46;;;;;;;4.43;3.67;;;;;;;;;;5028604;28;20052;-72
2023/09/27 12:33:15;;;;;;;4.22;2.97;;;;;;;;;;5031375;28;20505;-72
2023/09/27 12:35:44;;;;;;;5.10;3.67;;;;;;;;;;5020149;28;20033;-72
2023/09/27 12:38:10;;;;;;;4.15;2.97;;;;;;;;;;5033263;28;20037;-72
2023/09/27 12:40:37;;;;;;;3.65;2.60;;;;;;;;;;5043688;28;20043;-72
2023/09/27 12:43:04;;;;;;;3.80;3.05;;;;;;;;;;5032709;28;20049;-72
2023/09/27 12:45:30;;;;;;;3.70;3.00;;;;;;;;;;5027836;28;20067;-72
2023/09/27 12:47:55;;;;;;;3.53;2.88;;;;;;;;;;5027006;28;21335;-72
2023/09/27 12:50:26;;;;;;;4.93;3.17;;;;;;;;;;5014522;28;20515;-72
2023/09/27 12:52:55;;;;;;;5.95;2.88;;;;;;;;;;5012000;28;20588;-72
2023/09/27 12:55:21;;;;;;;6.07;3.20;;;;;;;;;;5031670;28;20032;-72
2023/09/27 12:57:47;;;;;;;4.88;3.28;;;;;;;;;;5037685;28;20378;-72
2023/09/27 13:00:14;;;;;;;3.88;2.83;;;;;;;;;;5036396;28;20646;-72
2023/09/27 13:02:39;;;;;;;5.30;3.67;;;;;;;;;;5004137;28;20160;-72
2023/09/27 13:05:08;;;;;;;4.40;3.40;;;;;;;;;;5015126;28;20569;-72
2023/09/27 13:07:34;;;;;;;4.50;3.70;;;;;;;;;;5022383;28;20041;-72
2023/09/27 13:09:59;;;;;;;5.72;3.58;;;;;;;;;;5021947;28;20060;-72
2023/09/27 13:12:25;;;;;;;4.07;2.83;;;;;;;;;;5033856;28;20405;-72
2023/09/27 13:14:50;;;;;;;3.97;2.65;;;;;;;;;;5038461;28;20392;-71
2023/09/27 13:17:16;;;;;;;3.50;3.20;;;;;;;;;;5025274;28;20044;-72
2023/09/27 13:19:43;;;;;;;3.30;2.40;;;;;;;;;;5037528;28;20475;-72
2023/09/27 13:22:08;;;;;;;4.50;2.80;;;;;;;;;;5033301;28;20512;-72
2023/09/27 13:24:34;;;;;;;4.10;3.30;;;;;;;;;;5032121;28;20127;-72
2023/09/27 13:26:59;;;;;;;6.68;3.75;;;;;;;;;;5040282;28;20160;-72
2023/09/27 13:29:24;;;;;;;5.28;3.70;;;;;;;;;;5040413;28;20094;-72
2023/09/27 13:31:50;;;;;;;6.18;3.47;;;;;;;;;;5027603;28;20102;-72
2023/09/27 13:34:16;;;;;;;5.47;3.17;;;;;;;;;;5038579;28;20128;-72
2023/09/27 13:36:41;;;;;;;4.70;3.40;;;;;;;;;;5029628;28;20142;-72
2023/09/27 13:39:13;;;;;;;3.67;3.05;;;;;;;;;;5023811;28;20469;-72
2023/09/27 13:41:41;;;;;;;2.97;2.70;;;;;;;;;;5040095;28;20060;-72
2023/09/27 13:44:07;;;;;;;3.92;3.38;;;;;;;;;;5024144;28;20036;-72
2023/09/27 13:46:32;;;;;;;3.88;3.45;;;;;;;;;;5030871;28;20117;-72
2023/09/27 13:48:58;;;;;;;3.88;2.78;;;;;;;;;;5007749;28;20037;-72
2023/09/27 13:51:23;;;;;;;2.55;2.35;;;;;;;;;;5042835;28;20068;-72
2023/09/27 13:53:48;;;;;;;3.00;2.80;;;;;;;;;;5037566;28;20082;-72
2023/09/27 13:56:14;;;;;;;7.65;3.30;;;;;;;;;;5044961;28;20152;-72
2023/09/27 13:58:41;;;;;;;4.40;3.42;;;;;;;;;;5022777;28;20535;-72
2023/09/27 14:01:07;;;;;;;3.88;3.00;;;;;;;;;;5030236;28;20078;-72
2023/09/27 14:03:32;;;;;;;2.92;2.72;;;;;;;;;;5035670;28;20029;-72
2023/09/27 14:05:58;;;;;;;2.70;2.50;;;;;;;;;;5032986;28;20037;-72
2023/09/27 14:08:23;;;;;;;5.10;2.88;;;;;;;;;;5012670;28;20491;-72
2023/09/27 14:10:49;;;;;;;6.25;3.53;;;;;;;;;;5043995;28;20040;-72
2023/09/27 14:13:15;;;;;;;4.40;3.53;;;;;;;;;;5025454;28;20041;-72
2023/09/27 14:15:40;;;;;;;4.78;2.80;;;;;;;;;;5030127;28;20067;-72
2023/09/27 14:18:06;;;;;;;3.88;2.95;;;;;;;;;;5026604;28;20045;-72
2023/09/27 14:20:31;;;;;;;4.40;3.00;;;;;;;;;;5040649;28;20147;-72
2023/09/27 14:22:57;;;;;;;4.20;3.38;;;;;;;;;;5039887;28;20036;-72
2023/09/27 14:25:26;;;;;;;3.40;2.80;;;;;;;;;;5037282;28;20071;-72
2023/09/27 14:27:51;;;;;;;3.00;2.60;;;;;;;;;;5024270;28;20028;-72
2023/09/27 14:30:17;;;;;;;2.70;2.50;;;;;;;;;;5035295;28;20082;-72
2023/09/27 14:32:42;;;;;;;5.25;3.00;;;;;;;;;;5021602;28;20041;-72
2023/09/27 14:35:08;;;;;;;3.30;3.00;;;;;;;;;;5014637;28;20069;-72
2023/09/27 14:37:35;;;;;;;6.75;2.88;;;;;;;;;;5036296;28;20055;-72
2023/09/27 14:40:02;;;;;;;3.45;2.80;;;;;;;;;;5039724;28;20049;-72
2023/09/27 14:42:28;;;;;;;3.97;2.67;;;;;;;;;;5034128;28;20049;-71